Time;durP1;ratioP1;P1;durP2;ratioP2;P2;SDS_P1;SDS_P2;PMS_P1;PMS_P2;Temp;Humidity;BMP_temperature;BMP_pressure;BME280_temperature;BME280_humidity;BME280_pressure;Samples;Min_cycle;Max_cycle;Signal;HPM_P1;HPM_P2
2021/01/25 00:00:28;;;;;;;28.15;3.50;;;6.00;99.90;;;;;;2112264;28;20138;-70
2021/01/25 00:01:29;;;;;;;24.80;3.97;;;6.10;99.90;;;;;;2104768;28;20031;-72
2021/01/25 00:02:29;;;;;;;17.13;2.83;;;6.10;99.90;;;;;;2110631;28;20564;-72
2021/01/25 00:03:31;;;;;;;20.92;3.45;;;6.10;99.90;;;;;;2113364;28;20028;-73
2021/01/25 00:04:32;;;;;;;25.77;3.63;;;6.10;99.90;;;;;;2113129;28;20522;-72
2021/01/25 00:05:34;;;;;;;33.40;3.75;;;6.10;99.90;;;;;;2104779;28;20057;-72
2021/01/25 00:06:34;;;;;;;;;;;6.10;99.90;;;;;;2101929;28;20032;-71
2021/01/25 00:07:35;;;;;;;28.50;3.40;;;6.10;99.90;;;;;;2106126;28;19904;-73
2021/01/25 00:08:36;;;;;;;21.27;3.47;;;6.10;99.90;;;;;;2106078;28;20034;-72
2021/01/25 00:09:37;;;;;;;23.50;3.75;;;6.00;99.90;;;;;;2113734;28;20024;-73
2021/01/25 00:10:37;;;;;;;21.02;3.53;;;6.10;99.90;;;;;;2109499;28;20050;-72
2021/01/25 00:11:38;;;;;;;37.13;3.17;;;6.10;99.90;;;;;;2114599;28;20437;-72
2021/01/25 00:12:39;;;;;;;33.65;4.32;;;6.00;99.90;;;;;;2109989;28;20024;-72
2021/01/25 00:13:39;;;;;;;25.48;3.40;;;6.00;99.90;;;;;;2105559;28;20034;-72
2021/01/25 00:14:40;;;;;;;31.35;3.60;;;5.90;99.90;;;;;;2105746;28;20395;-71
2021/01/25 00:15:41;;;;;;;15.95;3.15;;;5.80;99.90;;;;;;2105656;28;20489;-72
2021/01/25 00:16:41;;;;;;;16.27;2.78;;;5.90;99.90;;;;;;2106208;28;20021;-73
2021/01/25 00:17:42;;;;;;;19.17;3.30;;;5.80;99.90;;;;;;2111979;28;20062;-72
2021/01/25 00:18:42;;;;;;;16.83;2.45;;;5.80;99.90;;;;;;2114307;28;20047;-72
2021/01/25 00:19:43;;;;;;;19.23;3.05;;;5.70;99.90;;;;;;2113114;28;20161;-72
2021/01/25 00:20:44;;;;;;;17.30;2.85;;;5.70;99.90;;;;;;2105099;28;20024;-72
2021/01/25 00:21:44;;;;;;;21.20;3.33;;;5.70;99.90;;;;;;2105984;28;20035;-73
2021/01/25 00:22:45;;;;;;;16.00;2.88;;;5.70;99.90;;;;;;2105848;28;20024;-72
2021/01/25 00:23:46;;;;;;;17.30;2.85;;;5.70;99.90;;;;;;2106112;28;20024;-72
2021/01/25 00:24:47;;;;;;;23.48;2.70;;;5.80;99.90;;;;;;2109227;28;20074;-74
2021/01/25 00:25:47;;;;;;;19.10;2.50;;;5.90;99.90;;;;;;2108557;28;20063;-72
2021/01/25 00:26:48;;;;;;;20.33;2.80;;;5.90;99.90;;;;;;2116154;28;20356;-73
2021/01/25 00:27:49;;;;;;;13.52;2.13;;;5.90;99.90;;;;;;2113438;27;20019;-75
2021/01/25 00:28:49;;;;;;;14.68;2.63;;;5.90;99.90;;;;;;2105335;28;20024;-72
2021/01/25 00:29:50;;;;;;;18.52;2.88;;;5.90;99.90;;;;;;2112949;28;20081;-72
2021/01/25 00:30:51;;;;;;;15.45;2.65;;;6.00;99.90;;;;;;2105792;28;20028;-72
2021/01/25 00:31:52;;;;;;;23.48;3.08;;;6.00;99.90;;;;;;2113627;28;20034;-73
2021/01/25 00:32:53;;;;;;;30.38;4.32;;;6.00;99.90;;;;;;2113036;28;20008;-73
2021/01/25 00:33:54;;;;;;;23.35;3.35;;;6.00;99.90;;;;;;2123520;27;20134;-72
2021/01/25 00:34:54;;;;;;;35.95;4.38;;;6.10;99.90;;;;;;2106706;28;20515;-72
2021/01/25 00:35:55;;;;;;;25.42;3.42;;;6.10;99.90;;;;;;2098177;28;20548;-72
2021/01/25 00:36:56;;;;;;;24.05;3.33;;;6.10;99.90;;;;;;2107105;28;20055;-72
2021/01/25 00:37:56;;;;;;;17.80;3.13;;;6.20;99.90;;;;;;2112077;28;20117;-72
2021/01/25 00:38:57;;;;;;;24.02;2.95;;;6.20;99.90;;;;;;2113554;28;20061;-73
2021/01/25 00:39:57;;;;;;;25.88;4.65;;;6.20;99.90;;;;;;2109686;28;21550;-73
2021/01/25 00:40:58;;;;;;;36.75;4.07;;;6.20;99.90;;;;;;2117146;27;20410;-72
2021/01/25 00:41:59;;;;;;;19.58;2.58;;;6.30;99.90;;;;;;2123708;27;20600;-72
2021/01/25 00:42:59;;;;;;;15.20;2.53;;;6.30;99.90;;;;;;2115966;28;20030;-73
2021/01/25 00:44:00;;;;;;;18.42;4.47;;;6.30;99.90;;;;;;2109916;28;20440;-72
2021/01/25 00:45:02;;;;;;;17.08;3.22;;;6.30;99.90;;;;;;2111235;28;20043;-72
2021/01/25 00:46:02;;;;;;;21.23;2.97;;;6.30;99.90;;;;;;2115078;28;20024;-72
2021/01/25 00:47:03;;;;;;;25.30;3.70;;;6.30;99.90;;;;;;2113139;28;20051;-72
2021/01/25 00:48:04;;;;;;;25.50;3.67;;;6.30;99.90;;;;;;2115187;28;20506;-72
2021/01/25 00:49:05;;;;;;;37.17;4.75;;;6.30;99.90;;;;;;2107018;28;20028;-72
2021/01/25 00:50:06;;;;;;;29.67;3.60;;;6.30;99.90;;;;;;2109524;28;20019;-72
2021/01/25 00:51:07;;;;;;;33.97;4.72;;;6.30;99.90;;;;;;2107620;28;20012;-75
2021/01/25 00:52:07;;;;;;;23.20;2.92;;;6.30;99.90;;;;;;2112465;28;20030;-72
2021/01/25 00:53:08;;;;;;;21.77;2.40;;;6.30;99.90;;;;;;2114361;28;20113;-74
2021/01/25 00:54:09;;;;;;;17.90;3.03;;;6.40;99.90;;;;;;2108783;28;20031;-73
2021/01/25 00:55:11;;;;;;;27.13;3.85;;;6.40;99.90;;;;;;2109410;28;20027;-72
2021/01/25 00:56:12;;;;;;;21.60;3.40;;;6.40;99.90;;;;;;2107656;28;20012;-72
2021/01/25 00:57:12;;;;;;;23.10;2.55;;;6.40;99.90;;;;;;2107144;28;20479;-72
2021/01/25 00:58:13;;;;;;;14.35;2.35;;;6.40;99.90;;;;;;2106582;28;20039;-72
2021/01/25 00:59:13;;;;;;;26.30;3.40;;;6.40;99.90;;;;;;2114816;28;20035;-73
2021/01/25 01:00:15;;;;;;;29.95;3.17;;;6.30;99.90;;;;;;2106741;28;20032;-72
2021/01/25 01:01:16;;;;;;;22.77;2.83;;;6.30;99.90;;;;;;2114880;27;20038;-73
2021/01/25 01:02:17;;;;;;;31.67;4.15;;;6.30;99.90;;;;;;2113627;28;20122;-72
2021/01/25 01:03:17;;;;;;;25.35;3.88;;;6.30;99.90;;;;;;2114807;28;20153;-72
2021/01/25 01:04:18;;;;;;;16.50;3.25;;;6.30;99.90;;;;;;2114768;28;20015;-72
2021/01/25 01:05:19;;;;;;;20.00;3.42;;;6.40;99.90;;;;;;2115030;28;20114;-72
2021/01/25 01:06:19;;;;;;;21.85;3.72;;;6.40;99.90;;;;;;2115728;28;20555;-72
2021/01/25 01:07:20;;;;;;;22.35;3.83;;;6.40;99.90;;;;;;2110343;28;20024;-73
2021/01/25 01:08:21;;;;;;;19.98;3.42;;;6.40;99.90;;;;;;2117318;27;20524;-72
2021/01/25 01:09:21;;;;;;;19.60;3.10;;;6.50;99.90;;;;;;2114837;28;20015;-72
2021/01/25 01:10:23;;;;;;;27.77;3.35;;;6.50;99.90;;;;;;2120224;27;20022;-74
2021/01/25 01:11:24;;;;;;;37.30;4.30;;;6.50;99.90;;;;;;2123873;27;20102;-72
2021/01/25 01:12:24;;;;;;;15.15;2.65;;;6.50;99.90;;;;;;2110015;28;20028;-72
2021/01/25 01:13:25;;;;;;;18.67;2.75;;;6.50;99.90;;;;;;2106811;28;20729;-73
2021/01/25 01:14:26;;;;;;;18.65;2.78;;;6.50;99.90;;;;;;2114136;28;20016;-73
2021/01/25 01:15:27;;;;;;;16.85;2.92;;;6.50;99.90;;;;;;2111954;28;20376;-73
2021/01/25 01:16:27;;;;;;;16.58;2.95;;;6.50;99.90;;;;;;2114616;28;20028;-73
2021/01/25 01:17:28;;;;;;;25.83;3.05;;;6.40;99.90;;;;;;2114529;27;20032;-73
2021/01/25 01:18:29;;;;;;;24.55;3.05;;;6.40;99.90;;;;;;2106483;28;20501;-73
2021/01/25 01:19:29;;;;;;;22.38;2.83;;;6.40;99.90;;;;;;2113230;28;20696;-73
2021/01/25 01:20:30;;;;;;;19.92;3.83;;;6.40;99.90;;;;;;2113478;28;20024;-71
2021/01/25 01:21:31;;;;;;;25.40;3.00;;;6.40;99.90;;;;;;2107286;28;20028;-73
2021/01/25 01:22:32;;;;;;;29.45;3.53;;;6.40;99.90;;;;;;2109292;28;20449;-71
2021/01/25 01:23:33;;;;;;;23.38;4.10;;;6.40;99.90;;;;;;2114526;28;20028;-73
2021/01/25 01:24:33;;;;;;;19.95;3.38;;;6.50;99.90;;;;;;2114311;28;20530;-73
2021/01/25 01:25:34;;;;;;;27.50;3.72;;;6.50;99.90;;;;;;2106589;28;20484;-73
2021/01/25 01:26:35;;;;;;;26.92;3.60;;;6.50;99.90;;;;;;2106238;28;20039;-73
2021/01/25 01:27:36;;;;;;;31.13;4.63;;;6.50;99.90;;;;;;2113838;28;20032;-73
2021/01/25 01:28:37;;;;;;;29.77;4.60;;;6.50;99.90;;;;;;2123433;27;20105;-73
2021/01/25 01:29:37;;;;;;;36.13;4.00;;;6.50;99.90;;;;;;2109964;28;20016;-73
2021/01/25 01:30:38;;;;;;;26.73;4.30;;;6.50;99.90;;;;;;2106766;28;20025;-73
2021/01/25 01:31:38;;;;;;;20.05;2.90;;;6.50;99.90;;;;;;2106019;28;20621;-73
2021/01/25 01:32:39;;;;;;;28.80;3.17;;;6.50;99.90;;;;;;2108107;28;20030;-73
2021/01/25 01:33:40;;;;;;;21.63;3.55;;;6.50;99.90;;;;;;2115069;28;20027;-74
2021/01/25 01:34:40;;;;;;;30.02;4.05;;;6.50;99.90;;;;;;2114656;28;20024;-73
2021/01/25 01:35:41;;;;;;;24.35;3.28;;;6.50;99.90;;;;;;2114667;28;20015;-72
2021/01/25 01:36:42;;;;;;;20.88;3.05;;;6.50;99.90;;;;;;2112324;28;20717;-75
2021/01/25 01:37:42;;;;;;;23.30;3.80;;;6.50;99.90;;;;;;2099210;28;20412;-72
2021/01/25 01:38:43;;;;;;;17.13;3.33;;;6.50;99.90;;;;;;2109059;28;20138;-75
2021/01/25 01:39:44;;;;;;;30.70;3.53;;;6.50;99.90;;;;;;2122120;27;20023;-72
2021/01/25 01:40:45;;;;;;;33.08;3.97;;;6.50;99.90;;;;;;2108102;28;20045;-71
2021/01/25 01:41:45;;;;;;;42.03;4.40;;;6.50;99.90;;;;;;2107931;28;20031;-72
2021/01/25 01:42:46;;;;;;;29.20;4.25;;;6.40;99.90;;;;;;2114133;28;20078;-70
2021/01/25 01:43:47;;;;;;;36.88;4.95;;;6.30;99.90;;;;;;2109408;28;20026;-71
2021/01/25 01:44:47;;;;;;;40.70;5.20;;;6.10;99.90;;;;;;2103929;28;20078;-72
2021/01/25 01:45:48;;;;;;;62.08;7.22;;;6.00;99.90;;;;;;2113867;28;20507;-72
2021/01/25 01:46:49;;;;;;;43.80;5.32;;;5.90;99.90;;;;;;2115606;27;20072;-73
2021/01/25 01:47:50;;;;;;;29.42;3.58;;;5.70;99.90;;;;;;2108183;28;20024;-73
2021/01/25 01:48:51;;;;;;;35.53;4.82;;;5.70;99.90;;;;;;2114780;28;20104;-73
2021/01/25 01:49:51;;;;;;;25.08;3.40;;;5.60;99.90;;;;;;2110295;28;20026;-72
2021/01/25 01:50:52;;;;;;;21.25;3.92;;;5.60;99.90;;;;;;2106517;28;20725;-73
2021/01/25 01:51:53;;;;;;;26.70;3.50;;;5.60;99.90;;;;;;2113255;28;20039;-73
2021/01/25 01:52:54;;;;;;;17.92;3.50;;;5.50;99.90;;;;;;2114790;28;20031;-74
2021/01/25 01:53:55;;;;;;;25.30;3.80;;;5.40;99.90;;;;;;2106366;28;20044;-74
2021/01/25 01:54:58;;;;;;;33.88;3.80;;;5.30;99.90;;;;;;2111269;28;20027;-74
2021/01/25 01:55:59;;;;;;;24.80;3.40;;;5.20;99.90;;;;;;2105981;28;20020;-75
2021/01/25 01:57:01;;;;;;;24.38;3.20;;;5.10;99.90;;;;;;2105988;28;20490;-74
2021/01/25 01:58:03;;;;;;;27.42;3.45;;;5.00;99.90;;;;;;2106205;28;20031;-75
2021/01/25 01:59:04;;;;;;;28.02;2.97;;;4.90;99.90;;;;;;2106438;28;20027;-74
2021/01/25 02:00:06;;;;;;;31.75;3.50;;;4.80;99.90;;;;;;2106074;28;20545;-73
2021/01/25 02:01:06;;;;;;;19.23;3.40;;;4.80;99.90;;;;;;2106476;28;20602;-73
2021/01/25 02:02:07;;;;;;;25.83;4.57;;;4.70;99.90;;;;;;2109163;28;20036;-73
2021/01/25 02:03:08;;;;;;;23.52;3.30;;;4.70;99.90;;;;;;2105848;28;20028;-73
2021/01/25 02:04:10;;;;;;;19.85;3.33;;;4.60;99.90;;;;;;2108368;28;20103;-74
2021/01/25 02:05:11;;;;;;;;;;;4.50;99.90;;;;;;2107628;28;20550;-73
2021/01/25 02:06:13;;;;;;;20.73;3.03;;;4.50;99.90;;;;;;2106335;28;19904;-76
2021/01/25 02:07:15;;;;;;;37.75;4.00;;;4.40;99.90;;;;;;2102462;28;20024;-76
2021/01/25 02:08:17;;;;;;;42.05;3.70;;;4.40;99.90;;;;;;2114547;28;20076;-78
2021/01/25 02:09:18;;;;;;;20.27;3.20;;;4.30;99.90;;;;;;2113842;28;20054;-76
2021/01/25 02:10:21;;;;;;;25.88;3.45;;;4.40;99.90;;;;;;2102191;28;20021;-76
2021/01/25 02:11:22;;;;;;;40.60;4.95;;;4.30;99.90;;;;;;2114802;28;20624;-75
2021/01/25 02:12:23;;;;;;;33.47;4.28;;;4.30;99.90;;;;;;2105977;28;20020;-77
2021/01/25 02:13:25;;;;;;;22.08;3.20;;;4.40;99.90;;;;;;2107951;28;20503;-75
2021/01/25 02:14:26;;;;;;;23.00;3.75;;;4.40;99.90;;;;;;2107118;28;20057;-75
2021/01/25 02:15:28;;;;;;;29.27;3.25;;;4.50;99.90;;;;;;2109158;28;20127;-76
2021/01/25 02:16:29;;;;;;;17.65;2.65;;;4.50;99.90;;;;;;2120260;27;20024;-75
2021/01/25 02:17:30;;;;;;;28.17;3.28;;;4.50;99.90;;;;;;2119169;27;20516;-74
2021/01/25 02:18:35;;;;;;;25.60;3.65;;;4.50;99.90;;;;;;2112021;28;20059;-74
2021/01/25 02:19:43;;;;;;;28.30;3.55;;;4.60;99.90;;;;;;2114035;28;20051;-73
2021/01/25 02:20:45;;;;;;;27.30;3.72;;;4.60;99.90;;;;;;2112141;28;20049;-73
2021/01/25 02:21:53;;;;;;;;;;;4.60;99.90;;;;;;2106663;28;20035;-73
2021/01/25 02:23:01;;;;;;;21.63;3.22;;;4.60;99.90;;;;;;2110208;28;20414;-73
2021/01/25 02:24:06;;;;;;;25.02;3.45;;;4.70;99.90;;;;;;2114438;28;20524;-74
2021/01/25 02:25:28;;;;;;;35.33;5.32;;;4.80;99.90;;;;;;2114465;28;20039;-73
2021/01/25 02:26:57;;;;;;;20.33;2.95;;;4.90;99.90;;;;;;2106452;28;20028;-73
2021/01/25 02:28:00;;;;;;;17.88;3.20;;;5.00;99.90;;;;;;2107705;28;20123;-73
2021/01/25 02:29:01;;;;;;;25.70;3.20;;;5.00;99.90;;;;;;2105596;28;20016;-72
2021/01/25 02:30:05;;;;;;;29.93;4.43;;;5.00;99.90;;;;;;2108704;28;20077;-73
2021/01/25 02:31:09;;;;;;;22.58;4.03;;;5.10;99.90;;;;;;2111024;27;20259;-73
2021/01/25 02:32:11;;;;;;;34.80;4.35;;;5.10;99.90;;;;;;2113796;28;20024;-73
2021/01/25 02:33:13;;;;;;;25.25;3.83;;;5.10;99.90;;;;;;2114340;28;20069;-73
2021/01/25 02:34:14;;;;;;;;;;;5.10;99.90;;;;;;2114561;28;20026;-74
2021/01/25 02:35:17;;;;;;;49.60;6.10;;;5.10;99.90;;;;;;2114631;28;19904;-74
2021/01/25 02:36:18;;;;;;;34.15;5.38;;;5.10;99.90;;;;;;2111738;28;20637;-72
2021/01/25 02:37:20;;;;;;;34.22;5.80;;;5.10;99.90;;;;;;2111965;28;20099;-72
2021/01/25 02:38:22;;;;;;;32.67;6.05;;;5.10;99.90;;;;;;2114941;28;20034;-73
2021/01/25 02:39:23;;;;;;;18.55;4.57;;;5.10;99.90;;;;;;2113690;28;20057;-72
2021/01/25 02:40:26;;;;;;;22.55;4.13;;;5.10;99.90;;;;;;2108509;28;20032;-72
2021/01/25 02:41:28;;;;;;;28.83;3.83;;;5.10;99.90;;;;;;2106611;28;20051;-72
2021/01/25 02:42:30;;;;;;;30.27;4.30;;;5.10;99.90;;;;;;2106277;28;20028;-75
2021/01/25 02:43:31;;;;;;;30.58;4.22;;;5.10;99.90;;;;;;2105889;28;20024;-74
2021/01/25 02:44:35;;;;;;;25.23;3.75;;;5.10;99.90;;;;;;2114537;28;20485;-72
2021/01/25 02:45:36;;;;;;;34.10;4.43;;;5.00;99.90;;;;;;2122093;27;20052;-72
2021/01/25 02:46:37;;;;;;;19.58;3.67;;;5.00;99.90;;;;;;2122753;27;20039;-72
2021/01/25 02:47:38;;;;;;;22.70;3.47;;;5.00;99.90;;;;;;2114355;28;20028;-72
2021/01/25 02:48:39;;;;;;;11.68;2.83;;;5.00;99.90;;;;;;2104623;28;20020;-72
2021/01/25 02:49:40;;;;;;;16.08;3.00;;;4.90;99.90;;;;;;2114136;28;20082;-72
2021/01/25 02:50:49;;;;;;;16.38;2.67;;;4.90;99.90;;;;;;2114212;27;20024;-73
2021/01/25 02:51:49;;;;;;;12.68;3.00;;;4.80;99.90;;;;;;2105362;28;20046;-73
2021/01/25 02:52:50;;;;;;;13.15;3.03;;;4.80;99.90;;;;;;2112591;28;21082;-72
2021/01/25 02:53:51;;;;;;;11.68;2.92;;;4.70;99.90;;;;;;2113682;28;20016;-72
2021/01/25 02:54:51;;;;;;;12.40;2.95;;;4.70;99.90;;;;;;2113823;28;20110;-72
2021/01/25 02:55:55;;;;;;;13.05;2.75;;;4.70;99.90;;;;;;2114655;28;20039;-73
2021/01/25 02:56:56;;;;;;;15.40;3.15;;;4.60;99.90;;;;;;2113466;28;20711;-72
2021/01/25 02:57:57;;;;;;;16.45;3.10;;;4.60;99.90;;;;;;2105784;28;20016;-72
2021/01/25 02:58:59;;;;;;;11.18;3.47;;;4.60;99.90;;;;;;2099338;28;20526;-73
2021/01/25 03:00:00;;;;;;;13.80;3.15;;;4.50;99.90;;;;;;2107056;28;20024;-74
2021/01/25 03:01:01;;;;;;;10.65;3.00;;;4.50;99.90;;;;;;2105723;28;20035;-73
2021/01/25 03:02:04;;;;;;;13.82;3.22;;;4.50;99.90;;;;;;2106919;28;20023;-72
2021/01/25 03:03:06;;;;;;;14.98;3.03;;;4.40;99.90;;;;;;2106657;28;20060;-73
2021/01/25 03:04:07;;;;;;;9.23;3.03;;;4.40;99.90;;;;;;2112250;28;20051;-72
2021/01/25 03:05:08;;;;;;;7.60;3.05;;;4.30;99.90;;;;;;2113427;28;20061;-73
2021/01/25 03:06:11;;;;;;;15.90;3.33;;;4.30;99.90;;;;;;2114086;28;20023;-73
2021/01/25 03:07:12;;;;;;;8.27;2.63;;;4.30;99.90;;;;;;2113545;28;20023;-73
2021/01/25 03:08:13;;;;;;;8.93;3.33;;;4.30;99.90;;;;;;2112646;28;20028;-73
2021/01/25 03:09:14;;;;;;;14.88;2.88;;;4.30;99.90;;;;;;2121862;27;20020;-73
2021/01/25 03:10:14;;;;;;;14.23;3.47;;;4.30;99.90;;;;;;2107049;28;20036;-72
2021/01/25 03:11:19;;;;;;;15.35;3.67;;;4.30;99.90;;;;;;2107122;28;20078;-73
2021/01/25 03:12:20;;;;;;;13.90;2.88;;;4.30;99.90;;;;;;2111902;28;20019;-73
2021/01/25 03:13:27;;;;;;;12.15;2.70;;;4.20;99.90;;;;;;2113938;28;20511;-73
2021/01/25 03:14:28;;;;;;;15.48;2.80;;;4.20;99.90;;;;;;2106321;28;20031;-73
2021/01/25 03:15:32;;;;;;;11.10;3.30;;;4.20;99.90;;;;;;2113511;28;20063;-73
2021/01/25 03:16:33;;;;;;;20.73;3.90;;;4.20;99.90;;;;;;2114413;28;20015;-72
2021/01/25 03:17:34;;;;;;;23.83;3.88;;;4.20;99.90;;;;;;2114292;28;20030;-73
2021/01/25 03:18:34;;;;;;;14.82;3.10;;;4.30;99.90;;;;;;2109479;28;20107;-72
2021/01/25 03:19:35;;;;;;;16.48;3.83;;;4.30;99.90;;;;;;2113469;28;20040;-72
2021/01/25 03:20:36;;;;;;;15.68;3.72;;;4.40;99.90;;;;;;2113583;28;20074;-73
2021/01/25 03:21:45;;;;;;;16.17;4.00;;;4.50;99.90;;;;;;2114437;28;20024;-73
2021/01/25 03:22:46;;;;;;;15.38;2.72;;;4.50;99.90;;;;;;2111250;28;20518;-73
2021/01/25 03:23:47;;;;;;;21.05;3.20;;;4.60;99.90;;;;;;2113969;28;20023;-73
2021/01/25 03:24:47;;;;;;;20.45;3.97;;;4.60;99.90;;;;;;2105948;28;20025;-73
2021/01/25 03:25:48;;;;;;;20.85;3.65;;;4.70;99.90;;;;;;2108121;28;20036;-72
2021/01/25 03:26:49;;;;;;;20.70;4.18;;;4.70;99.90;;;;;;2114219;28;20023;-73
2021/01/25 03:27:49;;;;;;;19.63;3.60;;;4.70;99.90;;;;;;2110312;28;20023;-72
2021/01/25 03:28:50;;;;;;;21.48;3.92;;;4.70;99.90;;;;;;2122477;27;20553;-73
2021/01/25 03:29:51;;;;;;;17.98;2.85;;;4.70;99.90;;;;;;2122433;27;20047;-71
2021/01/25 03:30:52;;;;;;;18.65;4.03;;;4.70;99.90;;;;;;2113621;28;20115;-73
2021/01/25 03:31:52;;;;;;;24.52;3.80;;;4.80;99.90;;;;;;2103343;28;20073;-73
2021/01/25 03:32:53;;;;;;;19.75;3.95;;;4.80;99.90;;;;;;2108650;28;20017;-72
2021/01/25 03:33:54;;;;;;;17.80;3.28;;;4.80;99.90;;;;;;2105488;28;20024;-73
2021/01/25 03:34:54;;;;;;;18.65;3.60;;;4.80;99.90;;;;;;2104764;28;20020;-72
2021/01/25 03:35:55;;;;;;;17.58;3.80;;;4.80;99.90;;;;;;2115642;27;20028;-72
2021/01/25 03:36:56;;;;;;;21.48;4.30;;;4.80;99.90;;;;;;2113961;28;20019;-73
2021/01/25 03:37:56;;;;;;;13.27;2.83;;;4.90;99.90;;;;;;2108962;28;20558;-73
2021/01/25 03:38:58;;;;;;;17.30;3.53;;;4.90;99.90;;;;;;2109441;28;20015;-72
2021/01/25 03:39:59;;;;;;;17.23;3.38;;;4.90;99.90;;;;;;2110991;28;20032;-71
2021/01/25 03:40:59;;;;;;;13.95;2.88;;;4.90;99.90;;;;;;2106284;28;20021;-73
2021/01/25 03:42:00;;;;;;;27.63;5.07;;;4.90;99.90;;;;;;2110740;28;20094;-72
2021/01/25 03:43:01;;;;;;;11.88;2.65;;;4.90;99.90;;;;;;2113805;28;20039;-72
2021/01/25 03:44:01;;;;;;;21.95;2.83;;;5.00;99.90;;;;;;2122345;27;20072;-73
2021/01/25 03:45:04;;;;;;;16.27;2.88;;;5.00;99.90;;;;;;2118734;27;20466;-71
2021/01/25 03:46:04;;;;;;;;;;;5.00;99.90;;;;;;2107510;28;20023;-72
2021/01/25 03:47:05;;;;;;;17.05;3.15;;;5.00;99.90;;;;;;2113167;27;19912;-73
2021/01/25 03:48:06;;;;;;;15.55;3.05;;;5.00;99.90;;;;;;2105424;28;20016;-73
2021/01/25 03:49:07;;;;;;;11.15;2.65;;;5.00;99.90;;;;;;2114118;28;20024;-72
2021/01/25 03:50:08;;;;;;;19.45;3.33;;;5.00;99.90;;;;;;2108713;28;20534;-73
2021/01/25 03:51:09;;;;;;;19.05;2.65;;;4.90;99.90;;;;;;2113462;28;20023;-72
2021/01/25 03:52:09;;;;;;;12.98;3.42;;;5.00;99.90;;;;;;2113951;28;20016;-72
2021/01/25 03:53:11;;;;;;;15.77;3.15;;;4.90;99.90;;;;;;2121748;27;20118;-74
2021/01/25 03:54:13;;;;;;;22.63;3.25;;;4.90;99.90;;;;;;2113897;28;20023;-74
2021/01/25 03:55:13;;;;;;;14.57;3.40;;;4.90;99.90;;;;;;2110575;28;20027;-75
2021/01/25 03:56:15;;;;;;;16.65;3.60;;;4.90;99.90;;;;;;2106072;28;20059;-73
2021/01/25 03:57:16;;;;;;;24.02;3.40;;;4.90;99.90;;;;;;2110911;28;20141;-74
2021/01/25 03:58:17;;;;;;;24.70;5.28;;;4.90;99.90;;;;;;2113030;28;20494;-73
2021/01/25 03:59:17;;;;;;;21.60;3.33;;;4.80;99.90;;;;;;2106002;28;20039;-74
2021/01/25 04:00:21;;;;;;;16.08;3.13;;;4.80;99.90;;;;;;2108051;28;20572;-73
2021/01/25 04:01:21;;;;;;;14.55;3.70;;;4.80;99.90;;;;;;2114106;28;20078;-74
2021/01/25 04:02:22;;;;;;;12.57;3.30;;;4.70;99.90;;;;;;2119394;28;20084;-72
2021/01/25 04:03:23;;;;;;;10.68;2.85;;;4.60;99.90;;;;;;2113360;28;20515;-74
2021/01/25 04:04:24;;;;;;;14.05;2.92;;;4.60;99.90;;;;;;2105369;28;20480;-74
2021/01/25 04:05:25;;;;;;;12.82;2.80;;;4.50;99.90;;;;;;2113227;27;20457;-75
2021/01/25 04:06:25;;;;;;;11.45;2.53;;;4.40;99.90;;;;;;2113683;28;20761;-74
2021/01/25 04:07:26;;;;;;;7.65;2.88;;;4.40;99.90;;;;;;2112915;27;20499;-74
2021/01/25 04:08:26;;;;;;;9.50;3.10;;;4.30;99.90;;;;;;2106919;28;20053;-75
2021/01/25 04:09:27;;;;;;;13.07;2.75;;;4.20;99.90;;;;;;2116101;28;20016;-74
2021/01/25 04:10:28;;;;;;;10.82;3.28;;;4.10;99.90;;;;;;2113255;28;20069;-74
2021/01/25 04:11:28;;;;;;;10.70;2.97;;;4.10;99.90;;;;;;2113032;28;20398;-73
2021/01/25 04:12:29;;;;;;;7.75;2.72;;;4.00;99.90;;;;;;2115344;28;20020;-73
2021/01/25 04:13:30;;;;;;;9.65;3.35;;;3.90;99.90;;;;;;2116181;28;20020;-74
2021/01/25 04:14:30;;;;;;;19.58;3.65;;;3.90;99.90;;;;;;2107905;28;20089;-74
2021/01/25 04:15:31;;;;;;;13.93;2.90;;;3.90;99.90;;;;;;2108676;28;20024;-73
2021/01/25 04:16:32;;;;;;;10.93;3.50;;;3.90;99.90;;;;;;2104972;28;20036;-74
2021/01/25 04:17:32;;;;;;;8.32;3.40;;;3.90;99.90;;;;;;2114039;28;20039;-75
2021/01/25 04:18:33;;;;;;;10.55;3.28;;;3.90;99.90;;;;;;2113664;28;20666;-74
2021/01/25 04:19:34;;;;;;;10.07;3.30;;;3.90;99.90;;;;;;2114852;28;20448;-74
2021/01/25 04:20:35;;;;;;;10.05;3.05;;;3.90;99.90;;;;;;2113533;28;20055;-75
2021/01/25 04:21:35;;;;;;;7.53;2.92;;;3.90;99.90;;;;;;2107862;28;20464;-74
2021/01/25 04:22:37;;;;;;;10.32;3.20;;;3.80;99.90;;;;;;2115454;28;20099;-74
2021/01/25 04:23:38;;;;;;;8.30;3.28;;;3.90;99.90;;;;;;2108402;28;20024;-74
2021/01/25 04:24:38;;;;;;;9.68;4.28;;;3.90;99.90;;;;;;2114679;28;20040;-74
2021/01/25 04:25:39;;;;;;;10.30;3.47;;;3.90;99.90;;;;;;2123555;27;20026;-74
2021/01/25 04:26:41;;;;;;;11.50;3.75;;;3.90;99.90;;;;;;2124296;27;20024;-74
2021/01/25 04:27:42;;;;;;;6.97;2.90;;;3.80;99.90;;;;;;2115887;28;20015;-74
2021/01/25 04:28:43;;;;;;;11.00;3.75;;;3.80;99.90;;;;;;2116182;28;20527;-74
2021/01/25 04:29:44;;;;;;;6.95;3.25;;;3.80;99.90;;;;;;2108467;28;20028;-74
2021/01/25 04:30:44;;;;;;;8.30;3.55;;;3.80;99.90;;;;;;2114414;27;20288;-74
2021/01/25 04:31:45;;;;;;;12.32;3.33;;;3.80;99.90;;;;;;2119664;27;20406;-74
2021/01/25 04:32:46;;;;;;;9.32;3.78;;;3.80;99.90;;;;;;2115214;28;20020;-73
2021/01/25 04:33:46;;;;;;;8.80;3.05;;;3.80;99.90;;;;;;2116300;28;20045;-74
2021/01/25 04:34:47;;;;;;;8.75;3.30;;;3.80;99.90;;;;;;2115662;28;20091;-74
2021/01/25 04:35:48;;;;;;;13.13;4.30;;;3.80;99.90;;;;;;2114667;28;20422;-73
2021/01/25 04:36:48;;;;;;;7.40;2.80;;;3.70;99.90;;;;;;2114097;28;20030;-74
2021/01/25 04:37:49;;;;;;;10.13;3.20;;;3.70;99.90;;;;;;2123249;27;20418;-74
2021/01/25 04:38:50;;;;;;;19.33;4.13;;;3.70;99.90;;;;;;2122951;27;20027;-74
2021/01/25 04:39:51;;;;;;;7.95;2.97;;;3.70;99.90;;;;;;2113538;28;20020;-74
2021/01/25 04:40:52;;;;;;;10.00;3.97;;;3.70;99.90;;;;;;2116359;28;20466;-74
2021/01/25 04:41:52;;;;;;;12.38;3.50;;;3.70;99.90;;;;;;2111310;28;20031;-74
2021/01/25 04:42:54;;;;;;;8.18;3.25;;;3.70;99.90;;;;;;2106889;28;20039;-74
2021/01/25 04:43:55;;;;;;;11.05;3.60;;;3.70;99.90;;;;;;2107147;28;20020;-74
2021/01/25 04:44:57;;;;;;;8.65;3.20;;;3.70;99.90;;;;;;2109242;28;20118;-74
2021/01/25 04:45:59;;;;;;;7.32;4.13;;;3.70;99.90;;;;;;2113040;27;20155;-73
2021/01/25 04:47:01;;;;;;;;;;;3.70;99.90;;;;;;2123596;27;20483;-74
2021/01/25 04:48:03;;;;;;;13.07;3.20;;;3.60;99.90;;;;;;2123898;27;20039;-73
2021/01/25 04:49:04;;;;;;;11.82;3.30;;;3.60;99.90;;;;;;2106971;28;20112;-73
2021/01/25 04:50:05;;;;;;;4.82;2.75;;;3.60;99.90;;;;;;2100871;28;20157;-73
2021/01/25 04:51:06;;;;;;;7.50;3.30;;;3.60;99.90;;;;;;2115367;28;20023;-74
2021/01/25 04:52:10;;;;;;;9.10;2.92;;;3.50;99.90;;;;;;2109307;28;20020;-74
2021/01/25 04:53:11;;;;;;;8.50;3.17;;;3.50;99.90;;;;;;2113496;28;20035;-73
2021/01/25 04:54:14;;;;;;;9.95;3.33;;;3.50;99.90;;;;;;2108651;28;20020;-74
2021/01/25 04:55:15;;;;;;;12.02;2.95;;;3.50;99.90;;;;;;2110304;28;20107;-74
2021/01/25 04:56:16;;;;;;;6.70;3.30;;;3.50;99.90;;;;;;2115446;28;20716;-74
2021/01/25 04:57:17;;;;;;;7.97;3.30;;;3.50;99.90;;;;;;2106519;28;20424;-74
2021/01/25 04:58:18;;;;;;;5.68;3.67;;;3.50;99.90;;;;;;2107209;28;20030;-74
2021/01/25 04:59:20;;;;;;;8.77;3.10;;;3.50;99.90;;;;;;2110578;28;20035;-73
2021/01/25 05:00:21;;;;;;;6.85;3.22;;;3.50;99.90;;;;;;2113830;28;20027;-74
2021/01/25 05:01:22;;;;;;;8.88;3.13;;;3.60;99.90;;;;;;2115795;28;20019;-74
2021/01/25 05:02:23;;;;;;;9.73;3.00;;;3.60;99.90;;;;;;2122995;27;20019;-74
2021/01/25 05:03:24;;;;;;;11.02;3.20;;;3.50;99.90;;;;;;2123373;27;20045;-73
2021/01/25 05:04:24;;;;;;;7.75;3.63;;;3.50;99.90;;;;;;2115703;28;20046;-74
2021/01/25 05:05:25;;;;;;;16.92;3.90;;;3.50;99.90;;;;;;2113392;28;20058;-74
2021/01/25 05:06:26;;;;;;;9.57;4.20;;;3.50;99.90;;;;;;2114827;28;20415;-74
2021/01/25 05:07:27;;;;;;;11.18;3.42;;;3.50;99.90;;;;;;2116551;27;20085;-74
2021/01/25 05:08:28;;;;;;;8.65;3.55;;;3.50;99.90;;;;;;2106184;28;20027;-73
2021/01/25 05:09:29;;;;;;;8.52;3.40;;;3.50;99.90;;;;;;2113167;28;20016;-74
2021/01/25 05:10:33;;;;;;;6.10;3.30;;;3.50;99.90;;;;;;2108798;28;20030;-74
2021/01/25 05:11:34;;;;;;;5.60;3.28;;;3.50;99.90;;;;;;2106965;28;20031;-74
2021/01/25 05:12:45;;;;;;;7.53;3.85;;;3.50;99.90;;;;;;2114843;28;20067;-74
2021/01/25 05:13:46;;;;;;;8.60;3.42;;;3.50;99.90;;;;;;2108120;28;20743;-73
2021/01/25 05:14:47;;;;;;;8.38;3.13;;;3.50;99.90;;;;;;2106548;28;20024;-74
2021/01/25 05:15:50;;;;;;;10.13;3.10;;;3.50;99.90;;;;;;2114703;28;20042;-74
2021/01/25 05:16:52;;;;;;;10.20;3.95;;;3.50;99.90;;;;;;2106402;28;20020;-74
2021/01/25 05:17:54;;;;;;;7.13;3.10;;;3.50;99.90;;;;;;2105653;28;20027;-74
2021/01/25 05:18:56;;;;;;;12.88;3.42;;;3.50;99.90;;;;;;2112937;28;20431;-73
2021/01/25 05:19:57;;;;;;;12.20;3.90;;;3.50;99.90;;;;;;2114962;28;20028;-75
2021/01/25 05:20:58;;;;;;;9.38;3.67;;;3.60;99.90;;;;;;2114520;28;20039;-74